sensor_id;sensor_type;location;lat;lon;timestamp;P1;durP1;ratioP1;P2;durP2;ratioP2
41434;SDS011;27177;22.262;114.192;2022-12-20T00:01:57;10.27;;;3.53;;
41434;SDS011;27177;22.262;114.192;2022-12-20T00:04:24;9.75;;;3.20;;
41434;SDS011;27177;22.262;114.192;2022-12-20T00:06:51;7.97;;;3.28;;
41434;SDS011;27177;22.262;114.192;2022-12-20T00:11:53;9.07;;;2.97;;
41434;SDS011;27177;22.262;114.192;2022-12-20T00:14:20;9.90;;;4.18;;
41434;SDS011;27177;22.262;114.192;2022-12-20T00:16:46;9.60;;;3.00;;
41434;SDS011;27177;22.262;114.192;2022-12-20T00:19:13;8.50;;;3.13;;
41434;SDS011;27177;22.262;114.192;2022-12-20T00:21:40;9.43;;;3.22;;
41434;SDS011;27177;22.262;114.192;2022-12-20T00:24:07;4.70;;;3.15;;
41434;SDS011;27177;22.262;114.192;2022-12-20T00:26:35;9.18;;;3.70;;
41434;SDS011;27177;22.262;114.192;2022-12-20T00:29:02;6.55;;;2.75;;
41434;SDS011;27177;22.262;114.192;2022-12-20T00:31:30;7.32;;;3.05;;
41434;SDS011;27177;22.262;114.192;2022-12-20T00:34:08;10.02;;;2.88;;
41434;SDS011;27177;22.262;114.192;2022-12-20T00:36:35;6.28;;;3.20;;
41434;SDS011;27177;22.262;114.192;2022-12-20T00:46:50;9.63;;;3.05;;
41434;SDS011;27177;22.262;114.192;2022-12-20T00:49:17;6.88;;;2.65;;
41434;SDS011;27177;22.262;114.192;2022-12-20T00:51:44;8.98;;;3.67;;
41434;SDS011;27177;22.262;114.192;2022-12-20T00:54:11;12.27;;;3.25;;
41434;SDS011;27177;22.262;114.192;2022-12-20T00:59:13;8.68;;;3.05;;
41434;SDS011;27177;22.262;114.192;2022-12-20T01:01:40;7.07;;;3.13;;
41434;SDS011;27177;22.262;114.192;2022-12-20T01:04:07;9.63;;;3.15;;
41434;SDS011;27177;22.262;114.192;2022-12-20T01:06:33;7.75;;;3.35;;
41434;SDS011;27177;22.262;114.192;2022-12-20T01:09:02;11.00;;;3.33;;
41434;SDS011;27177;22.262;114.192;2022-12-20T01:11:31;6.63;;;3.72;;
41434;SDS011;27177;22.262;114.192;2022-12-20T01:14:00;12.00;;;3.33;;
41434;SDS011;27177;22.262;114.192;2022-12-20T01:16:30;11.02;;;3.90;;
41434;SDS011;27177;22.262;114.192;2022-12-20T01:19:02;8.73;;;3.13;;
41434;SDS011;27177;22.262;114.192;2022-12-20T01:21:30;8.57;;;3.65;;
41434;SDS011;27177;22.262;114.192;2022-12-20T01:24:00;7.80;;;3.47;;
41434;SDS011;27177;22.262;114.192;2022-12-20T01:26:27;10.80;;;3.50;;
41434;SDS011;27177;22.262;114.192;2022-12-20T01:28:55;12.02;;;4.72;;
41434;SDS011;27177;22.262;114.192;2022-12-20T01:31:23;9.68;;;3.35;;
41434;SDS011;27177;22.262;114.192;2022-12-20T01:33:51;7.30;;;3.25;;
41434;SDS011;27177;22.262;114.192;2022-12-20T01:36:21;6.93;;;3.53;;
41434;SDS011;27177;22.262;114.192;2022-12-20T01:38:58;6.75;;;3.65;;
41434;SDS011;27177;22.262;114.192;2022-12-20T01:41:27;10.93;;;3.85;;
41434;SDS011;27177;22.262;114.192;2022-12-20T01:43:56;10.30;;;3.50;;
41434;SDS011;27177;22.262;114.192;2022-12-20T01:46:26;7.45;;;3.47;;
41434;SDS011;27177;22.262;114.192;2022-12-20T01:49:29;6.78;;;3.60;;
41434;SDS011;27177;22.262;114.192;2022-12-20T01:54:29;9.50;;;3.72;;
41434;SDS011;27177;22.262;114.192;2022-12-20T01:57:03;9.93;;;3.63;;
41434;SDS011;27177;22.262;114.192;2022-12-20T01:59:37;13.23;;;4.20;;
41434;SDS011;27177;22.262;114.192;2022-12-20T02:02:06;13.45;;;3.88;;
41434;SDS011;27177;22.262;114.192;2022-12-20T02:04:37;12.55;;;3.95;;
41434;SDS011;27177;22.262;114.192;2022-12-20T02:07:04;7.32;;;4.05;;
41434;SDS011;27177;22.262;114.192;2022-12-20T02:09:33;12.23;;;5.57;;
41434;SDS011;27177;22.262;114.192;2022-12-20T02:12:09;10.88;;;3.65;;
41434;SDS011;27177;22.262;114.192;2022-12-20T02:17:44;10.48;;;3.58;;
41434;SDS011;27177;22.262;114.192;2022-12-20T02:31:34;14.45;;;3.80;;
41434;SDS011;27177;22.262;114.192;2022-12-20T02:34:06;10.93;;;3.80;;
41434;SDS011;27177;22.262;114.192;2022-12-20T02:36:35;8.80;;;3.80;;
41434;SDS011;27177;22.262;114.192;2022-12-20T02:39:02;7.90;;;3.47;;
41434;SDS011;27177;22.262;114.192;2022-12-20T02:41:29;11.88;;;3.70;;
41434;SDS011;27177;22.262;114.192;2022-12-20T02:44:04;6.97;;;3.35;;
41434;SDS011;27177;22.262;114.192;2022-12-20T02:46:54;8.63;;;3.75;;
41434;SDS011;27177;22.262;114.192;2022-12-20T02:49:24;9.20;;;3.80;;
41434;SDS011;27177;22.262;114.192;2022-12-20T02:51:53;10.35;;;4.30;;
41434;SDS011;27177;22.262;114.192;2022-12-20T02:54:23;9.82;;;4.25;;
41434;SDS011;27177;22.262;114.192;2022-12-20T02:56:55;14.52;;;4.15;;
41434;SDS011;27177;22.262;114.192;2022-12-20T02:59:40;7.75;;;3.53;;
41434;SDS011;27177;22.262;114.192;2022-12-20T03:02:14;11.93;;;4.05;;
41434;SDS011;27177;22.262;114.192;2022-12-20T03:04:42;7.90;;;3.17;;
41434;SDS011;27177;22.262;114.192;2022-12-20T03:07:11;10.20;;;3.97;;
41434;SDS011;27177;22.262;114.192;2022-12-20T03:09:39;12.95;;;3.78;;
41434;SDS011;27177;22.262;114.192;2022-12-20T03:12:08;9.20;;;3.60;;
41434;SDS011;27177;22.262;114.192;2022-12-20T03:14:36;13.65;;;4.03;;
41434;SDS011;27177;22.262;114.192;2022-12-20T03:17:04;10.65;;;3.95;;
41434;SDS011;27177;22.262;114.192;2022-12-20T03:19:32;12.73;;;4.50;;
41434;SDS011;27177;22.262;114.192;2022-12-20T03:21:59;11.23;;;3.72;;
41434;SDS011;27177;22.262;114.192;2022-12-20T03:24:25;11.52;;;4.00;;
41434;SDS011;27177;22.262;114.192;2022-12-20T03:26:52;5.53;;;3.28;;
41434;SDS011;27177;22.262;114.192;2022-12-20T03:29:19;11.48;;;3.80;;
41434;SDS011;27177;22.262;114.192;2022-12-20T03:31:46;13.07;;;4.40;;
41434;SDS011;27177;22.262;114.192;2022-12-20T03:34:13;8.85;;;3.78;;
41434;SDS011;27177;22.262;114.192;2022-12-20T03:36:40;9.77;;;4.05;;
41434;SDS011;27177;22.262;114.192;2022-12-20T03:39:06;7.75;;;3.60;;
41434;SDS011;27177;22.262;114.192;2022-12-20T03:41:33;7.07;;;3.50;;
41434;SDS011;27177;22.262;114.192;2022-12-20T03:44:00;8.93;;;3.75;;
41434;SDS011;27177;22.262;114.192;2022-12-20T03:46:27;9.57;;;3.60;;
41434;SDS011;27177;22.262;114.192;2022-12-20T03:48:53;8.52;;;3.40;;
41434;SDS011;27177;22.262;114.192;2022-12-20T03:51:20;8.95;;;3.72;;
41434;SDS011;27177;22.262;114.192;2022-12-20T03:53:47;6.43;;;3.55;;
41434;SDS011;27177;22.262;114.192;2022-12-20T03:56:14;10.23;;;4.05;;
41434;SDS011;27177;22.262;114.192;2022-12-20T03:58:40;9.98;;;4.47;;
41434;SDS011;27177;22.262;114.192;2022-12-20T04:04:03;8.02;;;4.13;;
41434;SDS011;27177;22.262;114.192;2022-12-20T04:06:30;10.15;;;4.30;;
41434;SDS011;27177;22.262;114.192;2022-12-20T04:08:57;9.35;;;4.82;;
41434;SDS011;27177;22.262;114.192;2022-12-20T04:11:24;7.93;;;4.38;;
41434;SDS011;27177;22.262;114.192;2022-12-20T04:13:51;8.40;;;4.15;;
41434;SDS011;27177;22.262;114.192;2022-12-20T04:16:23;7.85;;;4.60;;
41434;SDS011;27177;22.262;114.192;2022-12-20T04:18:51;10.88;;;4.40;;
41434;SDS011;27177;22.262;114.192;2022-12-20T04:21:28;10.27;;;4.65;;
41434;SDS011;27177;22.262;114.192;2022-12-20T04:23:56;8.88;;;4.75;;
41434;SDS011;27177;22.262;114.192;2022-12-20T04:26:24;9.43;;;4.50;;
41434;SDS011;27177;22.262;114.192;2022-12-20T04:28:51;8.02;;;4.55;;
41434;SDS011;27177;22.262;114.192;2022-12-20T04:31:18;13.15;;;4.90;;
41434;SDS011;27177;22.262;114.192;2022-12-20T04:33:45;8.80;;;4.30;;
41434;SDS011;27177;22.262;114.192;2022-12-20T04:36:13;11.23;;;4.95;;
41434;SDS011;27177;22.262;114.192;2022-12-20T04:38:40;11.10;;;5.93;;
41434;SDS011;27177;22.262;114.192;2022-12-20T04:41:07;12.93;;;4.63;;
41434;SDS011;27177;22.262;114.192;2022-12-20T04:43:34;10.50;;;4.28;;
41434;SDS011;27177;22.262;114.192;2022-12-20T04:46:00;11.90;;;5.45;;
41434;SDS011;27177;22.262;114.192;2022-12-20T04:48:27;10.68;;;4.85;;
41434;SDS011;27177;22.262;114.192;2022-12-20T04:50:54;8.27;;;4.80;;
41434;SDS011;27177;22.262;114.192;2022-12-20T04:53:21;12.43;;;4.82;;
41434;SDS011;27177;22.262;114.192;2022-12-20T04:56:07;14.25;;;4.68;;
41434;SDS011;27177;22.262;114.192;2022-12-20T04:58:34;13.23;;;5.95;;
41434;SDS011;27177;22.262;114.192;2022-12-20T05:01:01;8.93;;;4.68;;
41434;SDS011;27177;22.262;114.192;2022-12-20T05:03:28;12.85;;;4.60;;
41434;SDS011;27177;22.262;114.192;2022-12-20T05:05:55;11.65;;;4.28;;
41434;SDS011;27177;22.262;114.192;2022-12-20T05:08:22;9.80;;;4.38;;
41434;SDS011;27177;22.262;114.192;2022-12-20T05:10:49;10.68;;;4.30;;
41434;SDS011;27177;22.262;114.192;2022-12-20T05:13:16;9.85;;;4.10;;
41434;SDS011;27177;22.262;114.192;2022-12-20T05:15:43;7.40;;;4.63;;
41434;SDS011;27177;22.262;114.192;2022-12-20T05:18:09;5.82;;;4.10;;
41434;SDS011;27177;22.262;114.192;2022-12-20T05:20:36;8.63;;;3.95;;
41434;SDS011;27177;22.262;114.192;2022-12-20T05:23:03;7.68;;;4.18;;
41434;SDS011;27177;22.262;114.192;2022-12-20T05:25:48;11.52;;;4.60;;
41434;SDS011;27177;22.262;114.192;2022-12-20T05:28:34;13.40;;;5.38;;
41434;SDS011;27177;22.262;114.192;2022-12-20T05:31:01;9.52;;;4.40;;
41434;SDS011;27177;22.262;114.192;2022-12-20T05:33:28;9.48;;;4.47;;
41434;SDS011;27177;22.262;114.192;2022-12-20T05:35:55;9.63;;;4.60;;
41434;SDS011;27177;22.262;114.192;2022-12-20T05:38:22;9.65;;;4.85;;
41434;SDS011;27177;22.262;114.192;2022-12-20T05:40:49;7.57;;;5.07;;
41434;SDS011;27177;22.262;114.192;2022-12-20T05:43:16;9.88;;;5.45;;
41434;SDS011;27177;22.262;114.192;2022-12-20T05:45:48;10.43;;;4.68;;
41434;SDS011;27177;22.262;114.192;2022-12-20T05:50:44;8.95;;;4.22;;
41434;SDS011;27177;22.262;114.192;2022-12-20T05:53:12;8.38;;;4.22;;
41434;SDS011;27177;22.262;114.192;2022-12-20T05:55:49;9.80;;;4.50;;
41434;SDS011;27177;22.262;114.192;2022-12-20T05:58:17;8.85;;;4.75;;
41434;SDS011;27177;22.262;114.192;2022-12-20T06:00:44;8.63;;;4.43;;
41434;SDS011;27177;22.262;114.192;2022-12-20T06:03:11;10.18;;;4.82;;
41434;SDS011;27177;22.262;114.192;2022-12-20T06:05:39;9.85;;;4.20;;
41434;SDS011;27177;22.262;114.192;2022-12-20T06:08:07;10.05;;;3.92;;
41434;SDS011;27177;22.262;114.192;2022-12-20T06:10:34;7.22;;;4.18;;
41434;SDS011;27177;22.262;114.192;2022-12-20T06:13:02;5.80;;;4.13;;
41434;SDS011;27177;22.262;114.192;2022-12-20T06:15:29;8.25;;;4.15;;
41434;SDS011;27177;22.262;114.192;2022-12-20T06:17:56;10.25;;;4.50;;
41434;SDS011;27177;22.262;114.192;2022-12-20T06:20:23;6.78;;;3.95;;
41434;SDS011;27177;22.262;114.192;2022-12-20T06:22:50;11.02;;;4.60;;
41434;SDS011;27177;22.262;114.192;2022-12-20T06:25:17;8.52;;;4.03;;
41434;SDS011;27177;22.262;114.192;2022-12-20T06:27:43;8.52;;;4.57;;
41434;SDS011;27177;22.262;114.192;2022-12-20T06:30:10;9.93;;;3.80;;
41434;SDS011;27177;22.262;114.192;2022-12-20T06:32:37;9.20;;;4.35;;
41434;SDS011;27177;22.262;114.192;2022-12-20T06:35:04;12.23;;;5.13;;
41434;SDS011;27177;22.262;114.192;2022-12-20T06:37:31;6.88;;;3.65;;
41434;SDS011;27177;22.262;114.192;2022-12-20T06:39:58;10.50;;;5.43;;
41434;SDS011;27177;22.262;114.192;2022-12-20T06:42:25;8.27;;;4.03;;
41434;SDS011;27177;22.262;114.192;2022-12-20T06:44:52;8.05;;;4.35;;
41434;SDS011;27177;22.262;114.192;2022-12-20T06:47:19;8.88;;;4.25;;
41434;SDS011;27177;22.262;114.192;2022-12-20T06:49:46;7.68;;;3.72;;
41434;SDS011;27177;22.262;114.192;2022-12-20T06:52:13;8.25;;;4.63;;
41434;SDS011;27177;22.262;114.192;2022-12-20T06:54:39;9.32;;;4.30;;
41434;SDS011;27177;22.262;114.192;2022-12-20T06:57:06;7.00;;;4.03;;
41434;SDS011;27177;22.262;114.192;2022-12-20T06:59:33;11.23;;;4.22;;
41434;SDS011;27177;22.262;114.192;2022-12-20T07:02:00;16.77;;;5.35;;
41434;SDS011;27177;22.262;114.192;2022-12-20T07:04:26;10.80;;;4.00;;
41434;SDS011;27177;22.262;114.192;2022-12-20T07:06:53;10.50;;;3.60;;
41434;SDS011;27177;22.262;114.192;2022-12-20T07:09:21;10.10;;;3.63;;
41434;SDS011;27177;22.262;114.192;2022-12-20T07:11:48;8.57;;;3.78;;
41434;SDS011;27177;22.262;114.192;2022-12-20T07:14:16;6.30;;;3.53;;
41434;SDS011;27177;22.262;114.192;2022-12-20T07:16:43;7.47;;;3.47;;
41434;SDS011;27177;22.262;114.192;2022-12-20T07:19:10;9.35;;;4.18;;
41434;SDS011;27177;22.262;114.192;2022-12-20T07:21:40;11.10;;;4.53;;
41434;SDS011;27177;22.262;114.192;2022-12-20T07:24:07;12.07;;;4.65;;
41434;SDS011;27177;22.262;114.192;2022-12-20T07:26:34;9.15;;;4.10;;
41434;SDS011;27177;22.262;114.192;2022-12-20T07:29:01;9.57;;;3.90;;
41434;SDS011;27177;22.262;114.192;2022-12-20T07:31:28;7.85;;;3.63;;
41434;SDS011;27177;22.262;114.192;2022-12-20T07:33:55;9.23;;;3.92;;
41434;SDS011;27177;22.262;114.192;2022-12-20T07:36:21;9.80;;;4.07;;
41434;SDS011;27177;22.262;114.192;2022-12-20T07:38:48;9.10;;;4.45;;
41434;SDS011;27177;22.262;114.192;2022-12-20T07:41:16;8.38;;;4.40;;
41434;SDS011;27177;22.262;114.192;2022-12-20T07:43:46;7.70;;;3.92;;
41434;SDS011;27177;22.262;114.192;2022-12-20T07:46:13;7.93;;;4.53;;
41434;SDS011;27177;22.262;114.192;2022-12-20T07:48:41;7.45;;;3.30;;
41434;SDS011;27177;22.262;114.192;2022-12-20T07:51:19;8.40;;;4.22;;
41434;SDS011;27177;22.262;114.192;2022-12-20T07:53:58;8.95;;;4.40;;
41434;SDS011;27177;22.262;114.192;2022-12-20T07:56:32;7.40;;;3.80;;
41434;SDS011;27177;22.262;114.192;2022-12-20T07:59:01;17.85;;;5.88;;
41434;SDS011;27177;22.262;114.192;2022-12-20T08:01:28;9.32;;;4.00;;
41434;SDS011;27177;22.262;114.192;2022-12-20T08:04:02;6.70;;;3.83;;
41434;SDS011;27177;22.262;114.192;2022-12-20T08:06:35;7.85;;;4.00;;
41434;SDS011;27177;22.262;114.192;2022-12-20T08:09:04;11.82;;;3.88;;
41434;SDS011;27177;22.262;114.192;2022-12-20T08:11:32;11.95;;;4.20;;
41434;SDS011;27177;22.262;114.192;2022-12-20T08:14:01;8.75;;;4.53;;
41434;SDS011;27177;22.262;114.192;2022-12-20T08:16:31;9.90;;;4.28;;
41434;SDS011;27177;22.262;114.192;2022-12-20T08:18:58;8.57;;;4.25;;
41434;SDS011;27177;22.262;114.192;2022-12-20T08:21:24;7.05;;;3.50;;
41434;SDS011;27177;22.262;114.192;2022-12-20T08:23:51;5.95;;;3.78;;
41434;SDS011;27177;22.262;114.192;2022-12-20T08:26:18;6.45;;;3.60;;
41434;SDS011;27177;22.262;114.192;2022-12-20T08:28:45;10.60;;;4.63;;
41434;SDS011;27177;22.262;114.192;2022-12-20T08:31:11;9.68;;;4.05;;
41434;SDS011;27177;22.262;114.192;2022-12-20T08:33:38;11.70;;;4.43;;
41434;SDS011;27177;22.262;114.192;2022-12-20T08:36:07;8.65;;;3.22;;
41434;SDS011;27177;22.262;114.192;2022-12-20T08:38:36;6.88;;;3.72;;
41434;SDS011;27177;22.262;114.192;2022-12-20T08:41:03;8.20;;;3.83;;
41434;SDS011;27177;22.262;114.192;2022-12-20T08:43:37;7.80;;;3.53;;
41434;SDS011;27177;22.262;114.192;2022-12-20T08:46:05;7.28;;;3.42;;
41434;SDS011;27177;22.262;114.192;2022-12-20T08:48:33;8.43;;;3.55;;
41434;SDS011;27177;22.262;114.192;2022-12-20T08:51:03;10.48;;;4.22;;
41434;SDS011;27177;22.262;114.192;2022-12-20T08:56:07;7.82;;;4.00;;
41434;SDS011;27177;22.262;114.192;2022-12-20T08:58:36;11.15;;;3.80;;
41434;SDS011;27177;22.262;114.192;2022-12-20T09:01:04;8.05;;;3.55;;
41434;SDS011;27177;22.262;114.192;2022-12-20T09:03:33;7.28;;;3.83;;
41434;SDS011;27177;22.262;114.192;2022-12-20T09:06:03;8.73;;;4.13;;
41434;SDS011;27177;22.262;114.192;2022-12-20T09:08:32;8.00;;;3.83;;
41434;SDS011;27177;22.262;114.192;2022-12-20T09:11:06;8.60;;;4.18;;
41434;SDS011;27177;22.262;114.192;2022-12-20T09:13:38;7.07;;;4.15;;
41434;SDS011;27177;22.262;114.192;2022-12-20T09:16:06;5.25;;;3.40;;
41434;SDS011;27177;22.262;114.192;2022-12-20T09:18:34;8.18;;;3.97;;
41434;SDS011;27177;22.262;114.192;2022-12-20T09:21:02;6.43;;;3.25;;
41434;SDS011;27177;22.262;114.192;2022-12-20T09:23:30;7.65;;;3.55;;
41434;SDS011;27177;22.262;114.192;2022-12-20T09:26:04;7.65;;;3.67;;
41434;SDS011;27177;22.262;114.192;2022-12-20T09:28:32;6.82;;;3.58;;
41434;SDS011;27177;22.262;114.192;2022-12-20T09:31:01;7.07;;;3.75;;
41434;SDS011;27177;22.262;114.192;2022-12-20T09:33:30;8.07;;;4.13;;
41434;SDS011;27177;22.262;114.192;2022-12-20T09:35:57;12.15;;;4.18;;
41434;SDS011;27177;22.262;114.192;2022-12-20T09:38:25;8.20;;;4.22;;
41434;SDS011;27177;22.262;114.192;2022-12-20T09:40:53;11.05;;;4.82;;
41434;SDS011;27177;22.262;114.192;2022-12-20T09:43:22;8.80;;;4.25;;
41434;SDS011;27177;22.262;114.192;2022-12-20T09:45:50;8.57;;;4.15;;
41434;SDS011;27177;22.262;114.192;2022-12-20T09:48:23;10.77;;;4.38;;
41434;SDS011;27177;22.262;114.192;2022-12-20T09:59:41;12.25;;;4.85;;
41434;SDS011;27177;22.262;114.192;2022-12-20T10:02:13;11.25;;;4.32;;
41434;SDS011;27177;22.262;114.192;2022-12-20T10:04:46;10.02;;;4.05;;
41434;SDS011;27177;22.262;114.192;2022-12-20T10:07:21;8.00;;;4.15;;
41434;SDS011;27177;22.262;114.192;2022-12-20T10:10:18;11.60;;;4.53;;
41434;SDS011;27177;22.262;114.192;2022-12-20T10:13:18;9.27;;;4.60;;
41434;SDS011;27177;22.262;114.192;2022-12-20T10:21:33;6.88;;;4.15;;
41434;SDS011;27177;22.262;114.192;2022-12-20T10:24:17;6.82;;;4.55;;
41434;SDS011;27177;22.262;114.192;2022-12-20T10:26:49;8.43;;;4.47;;
41434;SDS011;27177;22.262;114.192;2022-12-20T10:29:17;10.85;;;5.18;;
41434;SDS011;27177;22.262;114.192;2022-12-20T10:31:47;9.57;;;4.95;;
41434;SDS011;27177;22.262;114.192;2022-12-20T10:34:17;8.27;;;5.05;;
41434;SDS011;27177;22.262;114.192;2022-12-20T10:36:44;11.30;;;5.57;;
41434;SDS011;27177;22.262;114.192;2022-12-20T10:39:14;11.10;;;5.35;;
41434;SDS011;27177;22.262;114.192;2022-12-20T10:46:44;7.32;;;4.18;;
41434;SDS011;27177;22.262;114.192;2022-12-20T10:54:43;9.10;;;4.45;;
41434;SDS011;27177;22.262;114.192;2022-12-20T10:59:53;9.05;;;4.85;;
41434;SDS011;27177;22.262;114.192;2022-12-20T11:05:00;8.43;;;4.57;;
41434;SDS011;27177;22.262;114.192;2022-12-20T11:07:54;8.55;;;4.63;;
41434;SDS011;27177;22.262;114.192;2022-12-20T11:10:24;8.43;;;4.38;;
41434;SDS011;27177;22.262;114.192;2022-12-20T11:12:54;10.95;;;4.90;;
41434;SDS011;27177;22.262;114.192;2022-12-20T11:15:24;9.18;;;5.05;;
41434;SDS011;27177;22.262;114.192;2022-12-20T11:18:21;7.03;;;3.92;;
41434;SDS011;27177;22.262;114.192;2022-12-20T11:35:02;8.43;;;4.43;;
41434;SDS011;27177;22.262;114.192;2022-12-20T11:38:06;11.82;;;6.07;;
41434;SDS011;27177;22.262;114.192;2022-12-20T11:51:23;8.50;;;4.60;;
41434;SDS011;27177;22.262;114.192;2022-12-20T11:57:03;6.43;;;4.18;;
41434;SDS011;27177;22.262;114.192;2022-12-20T11:59:44;8.50;;;4.15;;
41434;SDS011;27177;22.262;114.192;2022-12-20T12:04:54;6.80;;;4.20;;
41434;SDS011;27177;22.262;114.192;2022-12-20T12:07:27;10.75;;;4.90;;
41434;SDS011;27177;22.262;114.192;2022-12-20T12:12:49;8.45;;;4.20;;
41434;SDS011;27177;22.262;114.192;2022-12-20T12:17:58;12.13;;;5.30;;
41434;SDS011;27177;22.262;114.192;2022-12-20T12:20:47;7.60;;;4.50;;
41434;SDS011;27177;22.262;114.192;2022-12-20T12:23:23;11.52;;;5.97;;
41434;SDS011;27177;22.262;114.192;2022-12-20T12:25:57;9.65;;;5.50;;
41434;SDS011;27177;22.262;114.192;2022-12-20T12:28:27;10.35;;;5.05;;
41434;SDS011;27177;22.262;114.192;2022-12-20T12:30:57;9.95;;;4.97;;
41434;SDS011;27177;22.262;114.192;2022-12-20T12:33:36;10.25;;;5.85;;
41434;SDS011;27177;22.262;114.192;2022-12-20T12:36:13;10.93;;;5.97;;
41434;SDS011;27177;22.262;114.192;2022-12-20T12:47:15;10.60;;;5.70;;
41434;SDS011;27177;22.262;114.192;2022-12-20T12:50:22;9.77;;;5.43;;
41434;SDS011;27177;22.262;114.192;2022-12-20T12:52:59;10.00;;;5.82;;
41434;SDS011;27177;22.262;114.192;2022-12-20T13:00:54;9.75;;;6.50;;
41434;SDS011;27177;22.262;114.192;2022-12-20T13:04:07;12.00;;;6.13;;
41434;SDS011;27177;22.262;114.192;2022-12-20T13:11:40;12.85;;;6.50;;
41434;SDS011;27177;22.262;114.192;2022-12-20T13:19:33;11.63;;;6.20;;
41434;SDS011;27177;22.262;114.192;2022-12-20T13:37:56;11.88;;;5.80;;
41434;SDS011;27177;22.262;114.192;2022-12-20T13:40:41;10.70;;;5.30;;
41434;SDS011;27177;22.262;114.192;2022-12-20T13:45:48;7.68;;;5.07;;
41434;SDS011;27177;22.262;114.192;2022-12-20T13:48:24;8.95;;;5.00;;
41434;SDS011;27177;22.262;114.192;2022-12-20T13:51:33;12.25;;;6.40;;
41434;SDS011;27177;22.262;114.192;2022-12-20T13:54:00;10.82;;;5.85;;
41434;SDS011;27177;22.262;114.192;2022-12-20T13:56:48;6.72;;;5.28;;
41434;SDS011;27177;22.262;114.192;2022-12-20T13:59:21;9.68;;;5.20;;
41434;SDS011;27177;22.262;114.192;2022-12-20T14:02:01;10.85;;;5.68;;
41434;SDS011;27177;22.262;114.192;2022-12-20T14:04:43;9.07;;;5.10;;
41434;SDS011;27177;22.262;114.192;2022-12-20T14:07:15;9.73;;;5.47;;
41434;SDS011;27177;22.262;114.192;2022-12-20T14:09:43;10.18;;;5.15;;
41434;SDS011;27177;22.262;114.192;2022-12-20T14:12:12;12.35;;;5.53;;
41434;SDS011;27177;22.262;114.192;2022-12-20T14:14:43;11.05;;;6.20;;
41434;SDS011;27177;22.262;114.192;2022-12-20T14:17:21;15.38;;;6.82;;
41434;SDS011;27177;22.262;114.192;2022-12-20T14:22:32;10.68;;;6.20;;
41434;SDS011;27177;22.262;114.192;2022-12-20T14:25:01;13.95;;;6.35;;
41434;SDS011;27177;22.262;114.192;2022-12-20T14:27:33;12.23;;;6.57;;
41434;SDS011;27177;22.262;114.192;2022-12-20T14:30:03;10.15;;;5.78;;
41434;SDS011;27177;22.262;114.192;2022-12-20T14:32:31;10.02;;;5.90;;
41434;SDS011;27177;22.262;114.192;2022-12-20T14:34:58;12.93;;;5.57;;
41434;SDS011;27177;22.262;114.192;2022-12-20T14:37:34;10.38;;;5.95;;
41434;SDS011;27177;22.262;114.192;2022-12-20T14:42:37;10.32;;;5.88;;
41434;SDS011;27177;22.262;114.192;2022-12-20T14:47:35;9.77;;;5.85;;
41434;SDS011;27177;22.262;114.192;2022-12-20T14:50:04;9.18;;;5.85;;
41434;SDS011;27177;22.262;114.192;2022-12-20T14:52:42;9.10;;;5.95;;
41434;SDS011;27177;22.262;114.192;2022-12-20T15:03:00;9.43;;;6.20;;
41434;SDS011;27177;22.262;114.192;2022-12-20T15:05:51;11.57;;;5.88;;
41434;SDS011;27177;22.262;114.192;2022-12-20T15:08:21;14.77;;;6.80;;
41434;SDS011;27177;22.262;114.192;2022-12-20T15:13:27;11.13;;;6.13;;
41434;SDS011;27177;22.262;114.192;2022-12-20T15:15:57;11.15;;;6.43;;
41434;SDS011;27177;22.262;114.192;2022-12-20T15:18:25;13.95;;;6.50;;
41434;SDS011;27177;22.262;114.192;2022-12-20T15:20:59;12.32;;;6.90;;
41434;SDS011;27177;22.262;114.192;2022-12-20T15:23:29;9.88;;;6.53;;
41434;SDS011;27177;22.262;114.192;2022-12-20T15:25:57;13.10;;;6.95;;
41434;SDS011;27177;22.262;114.192;2022-12-20T15:28:24;14.77;;;6.90;;
41434;SDS011;27177;22.262;114.192;2022-12-20T15:30:52;11.18;;;6.20;;
41434;SDS011;27177;22.262;114.192;2022-12-20T15:33:24;11.50;;;6.88;;
41434;SDS011;27177;22.262;114.192;2022-12-20T15:35:53;14.18;;;6.68;;
41434;SDS011;27177;22.262;114.192;2022-12-20T15:38:23;17.50;;;7.85;;
41434;SDS011;27177;22.262;114.192;2022-12-20T15:40:52;12.00;;;6.32;;
41434;SDS011;27177;22.262;114.192;2022-12-20T15:43:25;10.40;;;5.93;;
41434;SDS011;27177;22.262;114.192;2022-12-20T15:45:52;12.77;;;6.63;;
41434;SDS011;27177;22.262;114.192;2022-12-20T15:48:20;11.98;;;6.78;;
41434;SDS011;27177;22.262;114.192;2022-12-20T15:50:49;11.70;;;7.18;;
41434;SDS011;27177;22.262;114.192;2022-12-20T15:53:24;15.10;;;7.50;;
41434;SDS011;27177;22.262;114.192;2022-12-20T15:56:00;12.57;;;7.57;;
41434;SDS011;27177;22.262;114.192;2022-12-20T15:58:26;13.07;;;7.68;;
41434;SDS011;27177;22.262;114.192;2022-12-20T16:00:54;15.20;;;8.07;;
41434;SDS011;27177;22.262;114.192;2022-12-20T16:03:30;16.88;;;8.02;;
41434;SDS011;27177;22.262;114.192;2022-12-20T16:05:57;19.00;;;9.32;;
41434;SDS011;27177;22.262;114.192;2022-12-20T16:08:24;14.27;;;7.50;;
41434;SDS011;27177;22.262;114.192;2022-12-20T16:10:50;13.10;;;7.78;;
41434;SDS011;27177;22.262;114.192;2022-12-20T16:13:21;14.88;;;7.80;;
41434;SDS011;27177;22.262;114.192;2022-12-20T16:15:50;16.60;;;9.68;;
41434;SDS011;27177;22.262;114.192;2022-12-20T16:18:17;12.73;;;7.90;;
41434;SDS011;27177;22.262;114.192;2022-12-20T16:20:44;11.48;;;6.97;;
41434;SDS011;27177;22.262;114.192;2022-12-20T16:23:14;14.82;;;7.00;;
41434;SDS011;27177;22.262;114.192;2022-12-20T16:25:43;13.25;;;7.55;;
41434;SDS011;27177;22.262;114.192;2022-12-20T16:28:10;10.57;;;5.70;;
41434;SDS011;27177;22.262;114.192;2022-12-20T16:30:37;11.77;;;6.25;;
41434;SDS011;27177;22.262;114.192;2022-12-20T16:33:04;12.23;;;6.57;;
41434;SDS011;27177;22.262;114.192;2022-12-20T16:35:34;16.20;;;8.50;;
41434;SDS011;27177;22.262;114.192;2022-12-20T16:38:01;12.82;;;8.10;;
41434;SDS011;27177;22.262;114.192;2022-12-20T16:40:29;14.65;;;8.20;;
41434;SDS011;27177;22.262;114.192;2022-12-20T16:42:57;12.80;;;8.07;;
41434;SDS011;27177;22.262;114.192;2022-12-20T16:45:29;17.73;;;7.32;;
41434;SDS011;27177;22.262;114.192;2022-12-20T16:50:24;20.27;;;9.13;;
41434;SDS011;27177;22.262;114.192;2022-12-20T16:52:52;19.08;;;9.32;;
41434;SDS011;27177;22.262;114.192;2022-12-20T16:55:20;21.40;;;9.35;;
41434;SDS011;27177;22.262;114.192;2022-12-20T16:57:49;19.05;;;9.88;;
41434;SDS011;27177;22.262;114.192;2022-12-20T17:00:17;19.08;;;8.70;;
41434;SDS011;27177;22.262;114.192;2022-12-20T17:02:46;16.30;;;9.02;;
41434;SDS011;27177;22.262;114.192;2022-12-20T17:05:32;20.15;;;9.43;;
41434;SDS011;27177;22.262;114.192;2022-12-20T17:08:01;20.27;;;8.32;;
41434;SDS011;27177;22.262;114.192;2022-12-20T17:10:28;17.13;;;8.55;;
41434;SDS011;27177;22.262;114.192;2022-12-20T17:12:55;14.93;;;8.57;;
41434;SDS011;27177;22.262;114.192;2022-12-20T17:15:26;16.50;;;8.10;;
41434;SDS011;27177;22.262;114.192;2022-12-20T17:17:54;19.30;;;8.60;;
41434;SDS011;27177;22.262;114.192;2022-12-20T17:20:22;18.80;;;8.30;;
41434;SDS011;27177;22.262;114.192;2022-12-20T17:22:50;16.45;;;8.60;;